Terminal Aerodrome Forecast
Issued by NWS Newport/Morehead City, NC

Home | Current Version | Previous Version | Graphics & Text | Print | Product List | Glossary On
Versions: 1 2 3 4 5 6 7 8 9 10 11 12 13 14 15 16 17 18 19 20
000
FTUS42 KMHX 181700
TAFEWN
TAF
KEWN 181727Z 1818/1918 04010KT P6SM SCT030 OVC050
     FM190300 05012KT 4SM RA BR OVC010
     FM190600 04012KT 4SM RA OVC007=

USA.gov is the U.S. government's official web portal to all federal, state and local government web resources and services.